Naikai2 — JD2433 — position and weather

sailwx.info

Track history (hours):
 
Tides and Currents Weather Stations Pressure Air Temp Water Temp Dewpoint Dewpoint Depression Visibility Wind Speed Wind Dir Waves Ship Positions

Naikai2

Last reported at 2017-Dec-11 12:24 UTC. Time now 2017-Dec-13 01:44 UTC.
Position N 34°38' E 135°10'.

Length 28 m; draft 2.2 m.

Type: Other ship. MMSI: 431000283.

Date/timePositionNaut miles runAvg speedWind from/ knotsBaromVisibWave heightAir tempDewpointWater temp
2017-Dec-11 12:24N 34°38' E 135°10'614.8
2017-Dec-11 12:00N 34°35' E 135°04'5 9.8
2017-Dec-11 11:30N 34°37' E 134°58'2 4.0
2017-Dec-11 11:00N 34°37' E 135°00'2 4.7
2017-Dec-11 10:30N 34°38' E 135°03'0 0.0
2017-Dec-11 10:00N 34°38' E 135°03'0 0.0
2017-Dec-11 09:30N 34°38' E 135°03'0 0.0
2017-Dec-11 09:00N 34°38' E 135°03'0 0.0
2017-Dec-11 08:30N 34°38' E 135°03'0 0.0
2017-Dec-11 08:00N 34°38' E 135°03'0 0.0
2017-Dec-11 07:30N 34°38' E 135°03'0 0.0
2017-Dec-11 07:00N 34°38' E 135°03'0 0.0
2017-Dec-11 06:30N 34°38' E 135°03'2 3.6
2017-Dec-11 06:01N 34°37' E 135°01'4 7.5
2017-Dec-11 05:31N 34°36' E 134°57'3 6.5
2017-Dec-11 05:00N 34°36' E 135°01'0 0.0
2017-Dec-11 04:30N 34°36' E 135°01'0 0.0
2017-Dec-11 04:00N 34°36' E 135°01'0 0.0
2017-Dec-11 03:30N 34°36' E 135°01'0 0.0
2017-Dec-11 03:00N 34°36' E 135°01'2 4.5
2017-Dec-11 02:31N 34°36' E 134°58'4 7.1
2017-Dec-11 02:00N 34°37' E 135°02'5 9.1
2017-Dec-11 01:30N 34°35' E 135°07'4 7.8
2017-Dec-11 01:01N 34°38' E 135°10'1 2.1
2017-Dec-11 00:30N 34°39' E 135°10'1 0.2
2017-Dec-10 21:29N 34°39' E 135°10'714.0
2017-Dec-10 21:00N 34°38' E 135°02'1 1.9
2017-Dec-10 20:30N 34°38' E 135°01'612.2
2017-Dec-10 20:00N 34°34' E 135°07'2 3.3
2017-Dec-10 19:31N 34°34' E 135°09'510.7
2017-Dec-10 19:00N 34°39' E 135°10'0 0.0
2017-Dec-10 18:30N 34°39' E 135°10'2 0.1
2017-Dec-10 01:21N 34°38' E 135°08'513.9
2017-Dec-10 01:00N 34°37' E 135°03'713.1
2017-Dec-10 00:31N 34°37' E 134°55'714.6
2017-Dec-10 00:00N 34°33' E 134°47'0 0.7
2017-Dec-09 23:30N 34°33' E 134°47'713.7
2017-Dec-09 23:01N 34°36' E 134°55'510.9
2017-Dec-09 22:30N 34°37' E 135°01'5 9.5
2017-Dec-09 22:01N 34°35' E 135°06'4 8.2
2017-Dec-09 21:30N 34°31' E 135°06'611.6
2017-Dec-09 21:01N 34°25' E 135°03'612.1
2017-Dec-09 20:30N 34°20' E 135°00'612.2
2017-Dec-09 20:00N 34°14' E 134°59'3 6.5
2017-Dec-09 19:30N 34°10' E 134°59'5 9.1
2017-Dec-09 19:00N 34°14' E 135°02'815.1
2017-Dec-09 18:30N 34°21' E 135°05'714.9
2017-Dec-09 18:00N 34°28' E 135°08'714.7
2017-Dec-09 17:30N 34°36' E 135°10'3 6.6
2017-Dec-09 17:00N 34°39' E 135°10'1 0.1
2017-Dec-08 11:14N 34°38' E 135°10'314.9
2017-Dec-08 11:00N 34°35' E 135°07'714.1
2017-Dec-08 10:30N 34°29' E 135°02'713.6
2017-Dec-08 10:01N 34°24' E 134°58'713.8
2017-Dec-08 09:30N 34°17' E 134°58'2 3.5
2017-Dec-08 09:00N 34°18' E 134°58'815.7
2017-Dec-08 08:30N 34°26' E 135°01'713.9
2017-Dec-08 08:00N 34°32' E 135°04'4 8.2
2017-Dec-08 07:30N 34°36' E 135°02'715.0
2017-Dec-08 07:01N 34°35' E 134°53'714.5
2017-Dec-08 06:30N 34°33' E 134°44'611.4
2017-Dec-08 06:00N 34°38' E 134°41'611.2
2017-Dec-08 05:30N 34°44' E 134°41'2 3.3
2017-Dec-08 05:00N 34°46' E 134°41'0 0.2
2017-Dec-08 04:30N 34°46' E 134°41'3 5.0
2017-Dec-08 04:00N 34°46' E 134°38'1 2.5
2017-Dec-08 03:28N 34°47' E 134°37'0 0.0
2017-Dec-07 06:17N 34°47' E 134°38'0 0.2
2017-Dec-07 06:00N 34°47' E 134°37'0 0.0
2017-Dec-07 05:30N 34°47' E 134°37'1 1.6
2017-Dec-07 04:57N 34°46' E 134°38'3 6.3
2017-Dec-07 04:30N 34°46' E 134°41'2 3.0
2017-Dec-07 04:00N 34°45' E 134°41'612.3
2017-Dec-07 03:30N 34°38' E 134°42'611.9
2017-Dec-07 03:00N 34°34' E 134°46'816.2
2017-Dec-07 02:31N 34°36' E 134°55'510.9
2017-Dec-07 02:01N 34°37' E 135°02'510.3
2017-Dec-07 01:30N 34°35' E 135°08'2 4.1
2017-Dec-07 01:00N 34°34' E 135°09'3 6.0
2017-Dec-07 00:31N 34°31' E 135°07'5 9.4
2017-Dec-07 00:01N 34°27' E 135°05'612.7
2017-Dec-06 23:30N 34°21' E 135°02'612.6
2017-Dec-06 23:00N 34°15' E 134°59'2 3.2
2017-Dec-06 22:30N 34°14' E 135°00'713.5
2017-Dec-06 22:00N 34°20' E 134°56'2 3.9
2017-Dec-06 21:30N 34°21' E 134°54'  
2017-Dec-04 01:32N 34°39' E 135°10'011.4
2017-Dec-04 01:30N 34°39' E 135°11'1 2.5
2017-Dec-04 01:00N 34°40' E 135°11'713.2
2017-Dec-04 00:31N 34°37' E 135°18'714.1
2017-Dec-04 00:01N 34°33' E 135°25'1 1.0
2017-Dec-03 23:30N 34°33' E 135°25'4 8.5
2017-Dec-03 23:01N 34°33' E 135°19'4 7.9
2017-Dec-03 22:30N 34°31' E 135°15'4 8.9
2017-Dec-03 22:00N 34°28' E 135°11'612.0
2017-Dec-03 21:30N 34°24' E 135°06'612.0
2017-Dec-03 21:01N 34°20' E 135°01'611.7
2017-Dec-03 20:30N 34°14' E 134°59'2 3.6
2017-Dec-03 20:00N 34°13' E 135°01'713.3
2017-Dec-03 19:30N 34°19' E 135°04'714.6
2017-Dec-03 19:00N 34°26' E 135°07'815.6
2017-Dec-03 18:30N 34°34' E 135°10'510.9
2017-Dec-03 18:01N 34°39' E 135°10'1 0.0
2017-Dec-02 09:48N 34°38' E 135°10'414.3
2017-Dec-02 09:30N 34°34' E 135°08'714.7
2017-Dec-02 09:00N 34°28' E 135°04'815.2
2017-Dec-02 08:30N 34°21' E 135°01'4 8.8
2017-Dec-02 08:00N 34°17' E 134°58'713.1
2017-Dec-02 07:30N 34°23' E 135°01'714.1
2017-Dec-02 07:00N 34°29' E 135°05'5 9.9
2017-Dec-02 06:30N 34°34' E 135°06'612.9
2017-Dec-02 06:00N 34°37' E 134°59'715.0
2017-Dec-02 05:30N 34°34' E 134°50'612.4
2017-Dec-02 05:00N 34°34' E 134°43'714.3
2017-Dec-02 04:30N 34°41' E 134°41'4 8.9
2017-Dec-02 04:00N 34°46' E 134°41'0 0.1
2017-Dec-02 03:29N 34°46' E 134°41'  
Track history (hours):
 
Tides and Currents Weather Stations Pressure Air Temp Water Temp Dewpoint Dewpoint Depression Visibility Wind Speed Wind Dir Waves Ship Positions

Naikai2

Last reported at 2017-Dec-11 12:24 UTC. Time now 2017-Dec-13 01:44 UTC.
Position N 34°38' E 135°10'.

Length 28 m; draft 2.2 m.

Type: Other ship. MMSI: 431000283.

Date/timePositionNaut miles runAvg speedWind from/ knotsBaromVisibWave heightAir tempDewpointWater temp
2017-Dec-11 12:24N 34°38' E 135°10'614.8
2017-Dec-11 12:00N 34°35' E 135°04'5 9.8
2017-Dec-11 11:30N 34°37' E 134°58'2 4.0
2017-Dec-11 11:00N 34°37' E 135°00'2 4.7
2017-Dec-11 10:30N 34°38' E 135°03'0 0.0
2017-Dec-11 10:00N 34°38' E 135°03'0 0.0
2017-Dec-11 09:30N 34°38' E 135°03'0 0.0
2017-Dec-11 09:00N 34°38' E 135°03'0 0.0
2017-Dec-11 08:30N 34°38' E 135°03'0 0.0
2017-Dec-11 08:00N 34°38' E 135°03'0 0.0
2017-Dec-11 07:30N 34°38' E 135°03'0 0.0
2017-Dec-11 07:00N 34°38' E 135°03'0 0.0
2017-Dec-11 06:30N 34°38' E 135°03'2 3.6
2017-Dec-11 06:01N 34°37' E 135°01'4 7.5
2017-Dec-11 05:31N 34°36' E 134°57'3 6.5
2017-Dec-11 05:00N 34°36' E 135°01'0 0.0
2017-Dec-11 04:30N 34°36' E 135°01'0 0.0
2017-Dec-11 04:00N 34°36' E 135°01'0 0.0
2017-Dec-11 03:30N 34°36' E 135°01'0 0.0
2017-Dec-11 03:00N 34°36' E 135°01'2 4.5
2017-Dec-11 02:31N 34°36' E 134°58'4 7.1
2017-Dec-11 02:00N 34°37' E 135°02'5 9.1
2017-Dec-11 01:30N 34°35' E 135°07'4 7.8
2017-Dec-11 01:01N 34°38' E 135°10'1 2.1
2017-Dec-11 00:30N 34°39' E 135°10'1 0.2
2017-Dec-10 21:29N 34°39' E 135°10'714.0
2017-Dec-10 21:00N 34°38' E 135°02'1 1.9
2017-Dec-10 20:30N 34°38' E 135°01'612.2
2017-Dec-10 20:00N 34°34' E 135°07'2 3.3
2017-Dec-10 19:31N 34°34' E 135°09'510.7
2017-Dec-10 19:00N 34°39' E 135°10'0 0.0
2017-Dec-10 18:30N 34°39' E 135°10'2 0.1
2017-Dec-10 01:21N 34°38' E 135°08'513.9
2017-Dec-10 01:00N 34°37' E 135°03'713.1
2017-Dec-10 00:31N 34°37' E 134°55'714.6
2017-Dec-10 00:00N 34°33' E 134°47'0 0.7
2017-Dec-09 23:30N 34°33' E 134°47'713.7
2017-Dec-09 23:01N 34°36' E 134°55'510.9
2017-Dec-09 22:30N 34°37' E 135°01'5 9.5
2017-Dec-09 22:01N 34°35' E 135°06'4 8.2
2017-Dec-09 21:30N 34°31' E 135°06'611.6
2017-Dec-09 21:01N 34°25' E 135°03'612.1
2017-Dec-09 20:30N 34°20' E 135°00'612.2
2017-Dec-09 20:00N 34°14' E 134°59'3 6.5
2017-Dec-09 19:30N 34°10' E 134°59'5 9.1
2017-Dec-09 19:00N 34°14' E 135°02'815.1
2017-Dec-09 18:30N 34°21' E 135°05'714.9
2017-Dec-09 18:00N 34°28' E 135°08'714.7
2017-Dec-09 17:30N 34°36' E 135°10'3 6.6
2017-Dec-09 17:00N 34°39' E 135°10'1 0.1
2017-Dec-08 11:14N 34°38' E 135°10'314.9
2017-Dec-08 11:00N 34°35' E 135°07'714.1
2017-Dec-08 10:30N 34°29' E 135°02'713.6
2017-Dec-08 10:01N 34°24' E 134°58'713.8
2017-Dec-08 09:30N 34°17' E 134°58'2 3.5
2017-Dec-08 09:00N 34°18' E 134°58'815.7
2017-Dec-08 08:30N 34°26' E 135°01'713.9
2017-Dec-08 08:00N 34°32' E 135°04'4 8.2
2017-Dec-08 07:30N 34°36' E 135°02'715.0
2017-Dec-08 07:01N 34°35' E 134°53'714.5
2017-Dec-08 06:30N 34°33' E 134°44'611.4
2017-Dec-08 06:00N 34°38' E 134°41'611.2
2017-Dec-08 05:30N 34°44' E 134°41'2 3.3
2017-Dec-08 05:00N 34°46' E 134°41'0 0.2
2017-Dec-08 04:30N 34°46' E 134°41'3 5.0
2017-Dec-08 04:00N 34°46' E 134°38'1 2.5
2017-Dec-08 03:28N 34°47' E 134°37'0 0.0
2017-Dec-07 06:17N 34°47' E 134°38'0 0.2
2017-Dec-07 06:00N 34°47' E 134°37'0 0.0
2017-Dec-07 05:30N 34°47' E 134°37'1 1.6
2017-Dec-07 04:57N 34°46' E 134°38'3 6.3
2017-Dec-07 04:30N 34°46' E 134°41'2 3.0
2017-Dec-07 04:00N 34°45' E 134°41'612.3
2017-Dec-07 03:30N 34°38' E 134°42'611.9
2017-Dec-07 03:00N 34°34' E 134°46'816.2
2017-Dec-07 02:31N 34°36' E 134°55'510.9
2017-Dec-07 02:01N 34°37' E 135°02'510.3
2017-Dec-07 01:30N 34°35' E 135°08'2 4.1
2017-Dec-07 01:00N 34°34' E 135°09'3 6.0
2017-Dec-07 00:31N 34°31' E 135°07'5 9.4
2017-Dec-07 00:01N 34°27' E 135°05'612.7
2017-Dec-06 23:30N 34°21' E 135°02'612.6
2017-Dec-06 23:00N 34°15' E 134°59'2 3.2
2017-Dec-06 22:30N 34°14' E 135°00'713.5
2017-Dec-06 22:00N 34°20' E 134°56'2 3.9
2017-Dec-06 21:30N 34°21' E 134°54'  
2017-Dec-04 01:32N 34°39' E 135°10'011.4
2017-Dec-04 01:30N 34°39' E 135°11'1 2.5
2017-Dec-04 01:00N 34°40' E 135°11'713.2
2017-Dec-04 00:31N 34°37' E 135°18'714.1
2017-Dec-04 00:01N 34°33' E 135°25'1 1.0
2017-Dec-03 23:30N 34°33' E 135°25'4 8.5
2017-Dec-03 23:01N 34°33' E 135°19'4 7.9
2017-Dec-03 22:30N 34°31' E 135°15'4 8.9
2017-Dec-03 22:00N 34°28' E 135°11'612.0
2017-Dec-03 21:30N 34°24' E 135°06'612.0
2017-Dec-03 21:01N 34°20' E 135°01'611.7
2017-Dec-03 20:30N 34°14' E 134°59'2 3.6
2017-Dec-03 20:00N 34°13' E 135°01'713.3
2017-Dec-03 19:30N 34°19' E 135°04'714.6
2017-Dec-03 19:00N 34°26' E 135°07'815.6
2017-Dec-03 18:30N 34°34' E 135°10'510.9
2017-Dec-03 18:01N 34°39' E 135°10'1 0.0
2017-Dec-02 09:48N 34°38' E 135°10'414.3
2017-Dec-02 09:30N 34°34' E 135°08'714.7
2017-Dec-02 09:00N 34°28' E 135°04'815.2
2017-Dec-02 08:30N 34°21' E 135°01'4 8.8
2017-Dec-02 08:00N 34°17' E 134°58'713.1
2017-Dec-02 07:30N 34°23' E 135°01'714.1
2017-Dec-02 07:00N 34°29' E 135°05'5 9.9
2017-Dec-02 06:30N 34°34' E 135°06'612.9
2017-Dec-02 06:00N 34°37' E 134°59'715.0
2017-Dec-02 05:30N 34°34' E 134°50'612.4
2017-Dec-02 05:00N 34°34' E 134°43'714.3
2017-Dec-02 04:30N 34°41' E 134°41'4 8.9
2017-Dec-02 04:00N 34°46' E 134°41'0 0.1
2017-Dec-02 03:29N 34°46' E 134°41'  

Dump ship's entire track history